<?xml version="1.0" encoding="UTF-8" standalone="no" ?>
<gpx xmlns="http://www.topografix.com/GPX/1/1" xmlns:xsi="http://www.w3.org/2001/XMLSchema-instance" xsi:schemaLocation="http://www.topografix.com/GPX/1/1 http://www.topografix.com/GPX/1/1/gpx.xsd" version="1.1" creator="VisuGPX - https://www.visugpx.com">
  <metadata>
    <name>Sur les hauteurs de Thann</name>
  </metadata>
  <wpt lat="47.80967" lon="7.10116">
    <ele>344</ele>
    <name><![CDATA[Place des Combattants d'Afrique du Nord]]></name>
  </wpt>
  <wpt lat="47.80874" lon="7.09581">
    <ele>482</ele>
    <name><![CDATA[Staufen]]></name>
  </wpt>
  <wpt lat="47.81432" lon="7.05851">
    <ele>626</ele>
    <name><![CDATA[Plan Diebolt Scheurer]]></name>
  </wpt>
  <wpt lat="47.80367" lon="7.06099">
    <ele>726</ele>
    <name><![CDATA[Abri Baumann]]></name>
  </wpt>
  <wpt lat="47.80139" lon="7.07214">
    <ele>617</ele>
    <name><![CDATA[ Col du Teufelsgrund]]></name>
  </wpt>
  <wpt lat="47.80268" lon="7.08136">
    <ele>631</ele>
    <name><![CDATA[Vue Zuber]]></name>
  </wpt>
  <wpt lat="47.8069" lon="7.08742">
    <ele>399</ele>
    <name><![CDATA[Terrain de tennis]]></name>
  </wpt>
  <wpt lat="47.80964" lon="7.10118">
    <ele>344</ele>
    <name><![CDATA[Place des Combattants d'Afrique du Nord]]></name>
  </wpt>
  <trk>
    <name><![CDATA[Sur les hauteurs de Thann]]></name>
    <trkseg>
      <trkpt lat="47.80967" lon="7.10116">
        <ele>344</ele>
        <time>2019-02-09T01:45:12+01:00</time>
      </trkpt>
      <trkpt lat="47.80958" lon="7.10096">
        <ele>345</ele>
        <time>2019-02-09T01:45:17+01:00</time>
      </trkpt>
      <trkpt lat="47.80969" lon="7.10064">
        <ele>350</ele>
        <time>2019-02-09T01:45:22+01:00</time>
      </trkpt>
      <trkpt lat="47.80945" lon="7.10037">
        <ele>355</ele>
        <time>2019-02-09T01:45:27+01:00</time>
      </trkpt>
      <trkpt lat="47.80949" lon="7.0995">
        <ele>378</ele>
        <time>2019-02-09T01:45:32+01:00</time>
      </trkpt>
      <trkpt lat="47.80979" lon="7.09964">
        <ele>376</ele>
        <time>2019-02-09T01:45:37+01:00</time>
      </trkpt>
      <trkpt lat="47.81013" lon="7.09918">
        <ele>386</ele>
        <time>2019-02-09T01:45:42+01:00</time>
      </trkpt>
      <trkpt lat="47.81056" lon="7.09686">
        <ele>418</ele>
        <time>2019-02-09T01:45:47+01:00</time>
      </trkpt>
      <trkpt lat="47.80999" lon="7.09789">
        <ele>430</ele>
        <time>2019-02-09T01:45:52+01:00</time>
      </trkpt>
      <trkpt lat="47.80937" lon="7.09795">
        <ele>434</ele>
        <time>2019-02-09T01:45:57+01:00</time>
      </trkpt>
      <trkpt lat="47.80967" lon="7.09752">
        <ele>444</ele>
        <time>2019-02-09T01:46:02+01:00</time>
      </trkpt>
      <trkpt lat="47.80905" lon="7.09735">
        <ele>455</ele>
        <time>2019-02-09T01:46:07+01:00</time>
      </trkpt>
      <trkpt lat="47.80905" lon="7.09726">
        <ele>457</ele>
        <time>2019-02-09T01:46:12+01:00</time>
      </trkpt>
      <trkpt lat="47.80917" lon="7.09701">
        <ele>464</ele>
        <time>2019-02-09T01:46:17+01:00</time>
      </trkpt>
      <trkpt lat="47.80908" lon="7.09687">
        <ele>466</ele>
        <time>2019-02-09T01:46:22+01:00</time>
      </trkpt>
      <trkpt lat="47.80932" lon="7.09644">
        <ele>470</ele>
        <time>2019-02-09T01:46:27+01:00</time>
      </trkpt>
      <trkpt lat="47.8093" lon="7.09622">
        <ele>474</ele>
        <time>2019-02-09T01:46:32+01:00</time>
      </trkpt>
      <trkpt lat="47.80889" lon="7.09651">
        <ele>471</ele>
        <time>2019-02-09T01:46:37+01:00</time>
      </trkpt>
      <trkpt lat="47.80861" lon="7.09645">
        <ele>470</ele>
        <time>2019-02-09T01:46:42+01:00</time>
      </trkpt>
      <trkpt lat="47.80874" lon="7.09581">
        <ele>482</ele>
        <time>2019-02-09T01:46:47+01:00</time>
      </trkpt>
      <trkpt lat="47.80869" lon="7.09384">
        <ele>494</ele>
        <time>2019-02-09T01:46:52+01:00</time>
      </trkpt>
      <trkpt lat="47.80864" lon="7.09316">
        <ele>494</ele>
        <time>2019-02-09T01:46:57+01:00</time>
      </trkpt>
      <trkpt lat="47.80886" lon="7.09254">
        <ele>493</ele>
        <time>2019-02-09T01:47:02+01:00</time>
      </trkpt>
      <trkpt lat="47.80911" lon="7.09093">
        <ele>483</ele>
        <time>2019-02-09T01:47:07+01:00</time>
      </trkpt>
      <trkpt lat="47.80975" lon="7.08951">
        <ele>475</ele>
        <time>2019-02-09T01:47:12+01:00</time>
      </trkpt>
      <trkpt lat="47.81033" lon="7.08885">
        <ele>477</ele>
        <time>2019-02-09T01:47:17+01:00</time>
      </trkpt>
      <trkpt lat="47.81078" lon="7.08736">
        <ele>480</ele>
        <time>2019-02-09T01:47:22+01:00</time>
      </trkpt>
      <trkpt lat="47.81101" lon="7.08581">
        <ele>488</ele>
        <time>2019-02-09T01:47:27+01:00</time>
      </trkpt>
      <trkpt lat="47.81101" lon="7.08535">
        <ele>495</ele>
        <time>2019-02-09T01:47:32+01:00</time>
      </trkpt>
      <trkpt lat="47.81097" lon="7.08462">
        <ele>512</ele>
        <time>2019-02-09T01:47:37+01:00</time>
      </trkpt>
      <trkpt lat="47.81081" lon="7.0843">
        <ele>520</ele>
        <time>2019-02-09T01:47:42+01:00</time>
      </trkpt>
      <trkpt lat="47.8105" lon="7.08404">
        <ele>525</ele>
        <time>2019-02-09T01:47:47+01:00</time>
      </trkpt>
      <trkpt lat="47.8099" lon="7.08378">
        <ele>519</ele>
        <time>2019-02-09T01:47:52+01:00</time>
      </trkpt>
      <trkpt lat="47.80987" lon="7.08314">
        <ele>522</ele>
        <time>2019-02-09T01:47:57+01:00</time>
      </trkpt>
      <trkpt lat="47.81019" lon="7.08081">
        <ele>537</ele>
        <time>2019-02-09T01:48:02+01:00</time>
      </trkpt>
      <trkpt lat="47.8102" lon="7.0797">
        <ele>544</ele>
        <time>2019-02-09T01:48:07+01:00</time>
      </trkpt>
      <trkpt lat="47.81003" lon="7.07923">
        <ele>541</ele>
        <time>2019-02-09T01:48:12+01:00</time>
      </trkpt>
      <trkpt lat="47.80929" lon="7.07585">
        <ele>547</ele>
        <time>2019-02-09T01:48:17+01:00</time>
      </trkpt>
      <trkpt lat="47.80946" lon="7.07541">
        <ele>540</ele>
        <time>2019-02-09T01:48:22+01:00</time>
      </trkpt>
      <trkpt lat="47.81128" lon="7.07572">
        <ele>557</ele>
        <time>2019-02-09T01:48:27+01:00</time>
      </trkpt>
      <trkpt lat="47.8118" lon="7.07554">
        <ele>560</ele>
        <time>2019-02-09T01:48:32+01:00</time>
      </trkpt>
      <trkpt lat="47.81186" lon="7.07498">
        <ele>563</ele>
        <time>2019-02-09T01:48:37+01:00</time>
      </trkpt>
      <trkpt lat="47.81119" lon="7.07318">
        <ele>571</ele>
        <time>2019-02-09T01:48:42+01:00</time>
      </trkpt>
      <trkpt lat="47.81117" lon="7.07113">
        <ele>574</ele>
        <time>2019-02-09T01:48:47+01:00</time>
      </trkpt>
      <trkpt lat="47.81154" lon="7.07025">
        <ele>577</ele>
        <time>2019-02-09T01:48:52+01:00</time>
      </trkpt>
      <trkpt lat="47.81206" lon="7.07006">
        <ele>589</ele>
        <time>2019-02-09T01:48:57+01:00</time>
      </trkpt>
      <trkpt lat="47.81268" lon="7.06951">
        <ele>601</ele>
        <time>2019-02-09T01:49:02+01:00</time>
      </trkpt>
      <trkpt lat="47.81266" lon="7.06866">
        <ele>591</ele>
        <time>2019-02-09T01:49:07+01:00</time>
      </trkpt>
      <trkpt lat="47.8131" lon="7.06777">
        <ele>594</ele>
        <time>2019-02-09T01:49:12+01:00</time>
      </trkpt>
      <trkpt lat="47.81393" lon="7.06708">
        <ele>603</ele>
        <time>2019-02-09T01:49:17+01:00</time>
      </trkpt>
      <trkpt lat="47.81476" lon="7.06701">
        <ele>616</ele>
        <time>2019-02-09T01:49:22+01:00</time>
      </trkpt>
      <trkpt lat="47.81546" lon="7.06656">
        <ele>618</ele>
        <time>2019-02-09T01:49:27+01:00</time>
      </trkpt>
      <trkpt lat="47.81581" lon="7.06477">
        <ele>623</ele>
        <time>2019-02-09T01:49:32+01:00</time>
      </trkpt>
      <trkpt lat="47.81432" lon="7.05851">
        <ele>626</ele>
        <time>2019-02-09T01:49:37+01:00</time>
      </trkpt>
      <trkpt lat="47.814" lon="7.05805">
        <ele>637</ele>
        <time>2019-02-09T01:49:42+01:00</time>
      </trkpt>
      <trkpt lat="47.81302" lon="7.0587">
        <ele>638</ele>
        <time>2019-02-09T01:49:47+01:00</time>
      </trkpt>
      <trkpt lat="47.81203" lon="7.05877">
        <ele>643</ele>
        <time>2019-02-09T01:49:52+01:00</time>
      </trkpt>
      <trkpt lat="47.81125" lon="7.05808">
        <ele>657</ele>
        <time>2019-02-09T01:49:57+01:00</time>
      </trkpt>
      <trkpt lat="47.80985" lon="7.05619">
        <ele>689</ele>
        <time>2019-02-09T01:50:02+01:00</time>
      </trkpt>
      <trkpt lat="47.8092" lon="7.0573">
        <ele>679</ele>
        <time>2019-02-09T01:50:07+01:00</time>
      </trkpt>
      <trkpt lat="47.80856" lon="7.05708">
        <ele>697</ele>
        <time>2019-02-09T01:50:12+01:00</time>
      </trkpt>
      <trkpt lat="47.8086" lon="7.05853">
        <ele>691</ele>
        <time>2019-02-09T01:50:17+01:00</time>
      </trkpt>
      <trkpt lat="47.80939" lon="7.06013">
        <ele>675</ele>
        <time>2019-02-09T01:50:22+01:00</time>
      </trkpt>
      <trkpt lat="47.80976" lon="7.06151">
        <ele>671</ele>
        <time>2019-02-09T01:50:27+01:00</time>
      </trkpt>
      <trkpt lat="47.80967" lon="7.06251">
        <ele>670</ele>
        <time>2019-02-09T01:50:32+01:00</time>
      </trkpt>
      <trkpt lat="47.8091" lon="7.06298">
        <ele>676</ele>
        <time>2019-02-09T01:50:37+01:00</time>
      </trkpt>
      <trkpt lat="47.80866" lon="7.06266">
        <ele>683</ele>
        <time>2019-02-09T01:50:42+01:00</time>
      </trkpt>
      <trkpt lat="47.80667" lon="7.06078">
        <ele>720</ele>
        <time>2019-02-09T01:50:47+01:00</time>
      </trkpt>
      <trkpt lat="47.80598" lon="7.06154">
        <ele>714</ele>
        <time>2019-02-09T01:50:52+01:00</time>
      </trkpt>
      <trkpt lat="47.80511" lon="7.06187">
        <ele>715</ele>
        <time>2019-02-09T01:50:57+01:00</time>
      </trkpt>
      <trkpt lat="47.80367" lon="7.06099">
        <ele>726</ele>
        <time>2019-02-09T01:51:02+01:00</time>
      </trkpt>
      <trkpt lat="47.80371" lon="7.06348">
        <ele>711</ele>
        <time>2019-02-09T01:51:07+01:00</time>
      </trkpt>
      <trkpt lat="47.80327" lon="7.06451">
        <ele>720</ele>
        <time>2019-02-09T01:51:12+01:00</time>
      </trkpt>
      <trkpt lat="47.80309" lon="7.06559">
        <ele>718</ele>
        <time>2019-02-09T01:51:17+01:00</time>
      </trkpt>
      <trkpt lat="47.80326" lon="7.0662">
        <ele>714</ele>
        <time>2019-02-09T01:51:22+01:00</time>
      </trkpt>
      <trkpt lat="47.80366" lon="7.06686">
        <ele>696</ele>
        <time>2019-02-09T01:51:27+01:00</time>
      </trkpt>
      <trkpt lat="47.8036" lon="7.06743">
        <ele>692</ele>
        <time>2019-02-09T01:51:32+01:00</time>
      </trkpt>
      <trkpt lat="47.80285" lon="7.06846">
        <ele>679</ele>
        <time>2019-02-09T01:51:37+01:00</time>
      </trkpt>
      <trkpt lat="47.80265" lon="7.0702">
        <ele>653</ele>
        <time>2019-02-09T01:51:42+01:00</time>
      </trkpt>
      <trkpt lat="47.8022" lon="7.0711">
        <ele>635</ele>
        <time>2019-02-09T01:51:47+01:00</time>
      </trkpt>
      <trkpt lat="47.80139" lon="7.07214">
        <ele>617</ele>
        <time>2019-02-09T01:51:52+01:00</time>
      </trkpt>
      <trkpt lat="47.80146" lon="7.07243">
        <ele>614</ele>
        <time>2019-02-09T01:51:57+01:00</time>
      </trkpt>
      <trkpt lat="47.80149" lon="7.07293">
        <ele>614</ele>
        <time>2019-02-09T01:52:02+01:00</time>
      </trkpt>
      <trkpt lat="47.80154" lon="7.07338">
        <ele>612</ele>
        <time>2019-02-09T01:52:07+01:00</time>
      </trkpt>
      <trkpt lat="47.80155" lon="7.07381">
        <ele>612</ele>
        <time>2019-02-09T01:52:12+01:00</time>
      </trkpt>
      <trkpt lat="47.80155" lon="7.07424">
        <ele>614</ele>
        <time>2019-02-09T01:52:17+01:00</time>
      </trkpt>
      <trkpt lat="47.80145" lon="7.0746">
        <ele>622</ele>
        <time>2019-02-09T01:52:22+01:00</time>
      </trkpt>
      <trkpt lat="47.80155" lon="7.07513">
        <ele>624</ele>
        <time>2019-02-09T01:52:27+01:00</time>
      </trkpt>
      <trkpt lat="47.80171" lon="7.07548">
        <ele>625</ele>
        <time>2019-02-09T01:52:32+01:00</time>
      </trkpt>
      <trkpt lat="47.80206" lon="7.07575">
        <ele>623</ele>
        <time>2019-02-09T01:52:37+01:00</time>
      </trkpt>
      <trkpt lat="47.80228" lon="7.07607">
        <ele>623</ele>
        <time>2019-02-09T01:52:42+01:00</time>
      </trkpt>
      <trkpt lat="47.80236" lon="7.07721">
        <ele>634</ele>
        <time>2019-02-09T01:52:47+01:00</time>
      </trkpt>
      <trkpt lat="47.8024" lon="7.0775">
        <ele>635</ele>
        <time>2019-02-09T01:52:52+01:00</time>
      </trkpt>
      <trkpt lat="47.80238" lon="7.07798">
        <ele>639</ele>
        <time>2019-02-09T01:52:57+01:00</time>
      </trkpt>
      <trkpt lat="47.80238" lon="7.07844">
        <ele>641</ele>
        <time>2019-02-09T01:53:02+01:00</time>
      </trkpt>
      <trkpt lat="47.80237" lon="7.07912">
        <ele>639</ele>
        <time>2019-02-09T01:53:07+01:00</time>
      </trkpt>
      <trkpt lat="47.80242" lon="7.07953">
        <ele>640</ele>
        <time>2019-02-09T01:53:12+01:00</time>
      </trkpt>
      <trkpt lat="47.80252" lon="7.07991">
        <ele>641</ele>
        <time>2019-02-09T01:53:17+01:00</time>
      </trkpt>
      <trkpt lat="47.80252" lon="7.08038">
        <ele>639</ele>
        <time>2019-02-09T01:53:22+01:00</time>
      </trkpt>
      <trkpt lat="47.80257" lon="7.08075">
        <ele>635</ele>
        <time>2019-02-09T01:53:27+01:00</time>
      </trkpt>
      <trkpt lat="47.80265" lon="7.08104">
        <ele>632</ele>
        <time>2019-02-09T01:53:32+01:00</time>
      </trkpt>
      <trkpt lat="47.80268" lon="7.08136">
        <ele>631</ele>
        <time>2019-02-09T01:53:37+01:00</time>
      </trkpt>
      <trkpt lat="47.80173" lon="7.07915">
        <ele>630</ele>
        <time>2019-02-09T01:53:42+01:00</time>
      </trkpt>
      <trkpt lat="47.80177" lon="7.07973">
        <ele>623</ele>
        <time>2019-02-09T01:53:47+01:00</time>
      </trkpt>
      <trkpt lat="47.80155" lon="7.08176">
        <ele>597</ele>
        <time>2019-02-09T01:53:52+01:00</time>
      </trkpt>
      <trkpt lat="47.80127" lon="7.0824">
        <ele>581</ele>
        <time>2019-02-09T01:53:57+01:00</time>
      </trkpt>
      <trkpt lat="47.80107" lon="7.08371">
        <ele>573</ele>
        <time>2019-02-09T01:54:02+01:00</time>
      </trkpt>
      <trkpt lat="47.80094" lon="7.0833">
        <ele>568</ele>
        <time>2019-02-09T01:54:07+01:00</time>
      </trkpt>
      <trkpt lat="47.80065" lon="7.0847">
        <ele>547</ele>
        <time>2019-02-09T01:54:12+01:00</time>
      </trkpt>
      <trkpt lat="47.80104" lon="7.08792">
        <ele>517</ele>
        <time>2019-02-09T01:54:17+01:00</time>
      </trkpt>
      <trkpt lat="47.80136" lon="7.08791">
        <ele>522</ele>
        <time>2019-02-09T01:54:22+01:00</time>
      </trkpt>
      <trkpt lat="47.80166" lon="7.088">
        <ele>525</ele>
        <time>2019-02-09T01:54:27+01:00</time>
      </trkpt>
      <trkpt lat="47.80217" lon="7.08838">
        <ele>522</ele>
        <time>2019-02-09T01:54:32+01:00</time>
      </trkpt>
      <trkpt lat="47.80262" lon="7.08891">
        <ele>506</ele>
        <time>2019-02-09T01:54:37+01:00</time>
      </trkpt>
      <trkpt lat="47.8029" lon="7.08937">
        <ele>492</ele>
        <time>2019-02-09T01:54:42+01:00</time>
      </trkpt>
      <trkpt lat="47.80321" lon="7.08958">
        <ele>487</ele>
        <time>2019-02-09T01:54:47+01:00</time>
      </trkpt>
      <trkpt lat="47.80351" lon="7.09045">
        <ele>467</ele>
        <time>2019-02-09T01:54:52+01:00</time>
      </trkpt>
      <trkpt lat="47.80356" lon="7.09097">
        <ele>456</ele>
        <time>2019-02-09T01:54:57+01:00</time>
      </trkpt>
      <trkpt lat="47.80412" lon="7.08958">
        <ele>475</ele>
        <time>2019-02-09T01:55:02+01:00</time>
      </trkpt>
      <trkpt lat="47.80474" lon="7.08826">
        <ele>467</ele>
        <time>2019-02-09T01:55:07+01:00</time>
      </trkpt>
      <trkpt lat="47.80493" lon="7.08774">
        <ele>459</ele>
        <time>2019-02-09T01:55:12+01:00</time>
      </trkpt>
      <trkpt lat="47.80509" lon="7.08711">
        <ele>455</ele>
        <time>2019-02-09T01:55:17+01:00</time>
      </trkpt>
      <trkpt lat="47.80513" lon="7.08689">
        <ele>454</ele>
        <time>2019-02-09T01:55:22+01:00</time>
      </trkpt>
      <trkpt lat="47.80521" lon="7.08672">
        <ele>453</ele>
        <time>2019-02-09T01:55:27+01:00</time>
      </trkpt>
      <trkpt lat="47.80535" lon="7.08663">
        <ele>451</ele>
        <time>2019-02-09T01:55:32+01:00</time>
      </trkpt>
      <trkpt lat="47.80535" lon="7.08688">
        <ele>449</ele>
        <time>2019-02-09T01:55:37+01:00</time>
      </trkpt>
      <trkpt lat="47.8053" lon="7.08716">
        <ele>449</ele>
        <time>2019-02-09T01:55:42+01:00</time>
      </trkpt>
      <trkpt lat="47.80536" lon="7.08737">
        <ele>447</ele>
        <time>2019-02-09T01:55:47+01:00</time>
      </trkpt>
      <trkpt lat="47.80603" lon="7.08683">
        <ele>431</ele>
        <time>2019-02-09T01:55:52+01:00</time>
      </trkpt>
      <trkpt lat="47.80661" lon="7.08613">
        <ele>411</ele>
        <time>2019-02-09T01:55:57+01:00</time>
      </trkpt>
      <trkpt lat="47.80663" lon="7.08661">
        <ele>409</ele>
        <time>2019-02-09T01:56:02+01:00</time>
      </trkpt>
      <trkpt lat="47.8067" lon="7.08622">
        <ele>408</ele>
        <time>2019-02-09T01:56:07+01:00</time>
      </trkpt>
      <trkpt lat="47.80683" lon="7.08662">
        <ele>404</ele>
        <time>2019-02-09T01:56:12+01:00</time>
      </trkpt>
      <trkpt lat="47.80683" lon="7.08711">
        <ele>402</ele>
        <time>2019-02-09T01:56:17+01:00</time>
      </trkpt>
      <trkpt lat="47.8069" lon="7.08742">
        <ele>399</ele>
        <time>2019-02-09T01:56:22+01:00</time>
      </trkpt>
      <trkpt lat="47.8069" lon="7.08773">
        <ele>398</ele>
        <time>2019-02-09T01:56:27+01:00</time>
      </trkpt>
      <trkpt lat="47.80674" lon="7.08831">
        <ele>397</ele>
        <time>2019-02-09T01:56:32+01:00</time>
      </trkpt>
      <trkpt lat="47.80651" lon="7.0889">
        <ele>395</ele>
        <time>2019-02-09T01:56:37+01:00</time>
      </trkpt>
      <trkpt lat="47.80599" lon="7.09015">
        <ele>393</ele>
        <time>2019-02-09T01:56:42+01:00</time>
      </trkpt>
      <trkpt lat="47.80583" lon="7.09056">
        <ele>390</ele>
        <time>2019-02-09T01:56:47+01:00</time>
      </trkpt>
      <trkpt lat="47.80577" lon="7.09086">
        <ele>388</ele>
        <time>2019-02-09T01:56:52+01:00</time>
      </trkpt>
      <trkpt lat="47.80567" lon="7.09121">
        <ele>387</ele>
        <time>2019-02-09T01:56:57+01:00</time>
      </trkpt>
      <trkpt lat="47.80555" lon="7.09191">
        <ele>382</ele>
        <time>2019-02-09T01:57:02+01:00</time>
      </trkpt>
      <trkpt lat="47.80513" lon="7.09299">
        <ele>380</ele>
        <time>2019-02-09T01:57:07+01:00</time>
      </trkpt>
      <trkpt lat="47.80482" lon="7.09408">
        <ele>369</ele>
        <time>2019-02-09T01:57:12+01:00</time>
      </trkpt>
      <trkpt lat="47.80483" lon="7.0949">
        <ele>362</ele>
        <time>2019-02-09T01:57:17+01:00</time>
      </trkpt>
      <trkpt lat="47.8056" lon="7.09579">
        <ele>364</ele>
        <time>2019-02-09T01:57:22+01:00</time>
      </trkpt>
      <trkpt lat="47.80585" lon="7.09729">
        <ele>356</ele>
        <time>2019-02-09T01:57:27+01:00</time>
      </trkpt>
      <trkpt lat="47.80606" lon="7.09889">
        <ele>352</ele>
        <time>2019-02-09T01:57:32+01:00</time>
      </trkpt>
      <trkpt lat="47.80649" lon="7.09985">
        <ele>349</ele>
        <time>2019-02-09T01:57:37+01:00</time>
      </trkpt>
      <trkpt lat="47.80679" lon="7.10076">
        <ele>344</ele>
        <time>2019-02-09T01:57:42+01:00</time>
      </trkpt>
      <trkpt lat="47.80721" lon="7.10054">
        <ele>345</ele>
        <time>2019-02-09T01:57:47+01:00</time>
      </trkpt>
      <trkpt lat="47.80788" lon="7.10043">
        <ele>348</ele>
        <time>2019-02-09T01:57:52+01:00</time>
      </trkpt>
      <trkpt lat="47.80827" lon="7.10064">
        <ele>347</ele>
        <time>2019-02-09T01:57:57+01:00</time>
      </trkpt>
      <trkpt lat="47.80868" lon="7.10075">
        <ele>347</ele>
        <time>2019-02-09T01:58:02+01:00</time>
      </trkpt>
      <trkpt lat="47.8095" lon="7.10099">
        <ele>346</ele>
        <time>2019-02-09T01:58:07+01:00</time>
      </trkpt>
      <trkpt lat="47.80961" lon="7.1012">
        <ele>344</ele>
        <time>2019-02-09T01:58:12+01:00</time>
      </trkpt>
      <trkpt lat="47.80961" lon="7.10119">
        <ele>344</ele>
        <time>2019-02-09T01:58:17+01:00</time>
      </trkpt>
      <trkpt lat="47.80964" lon="7.10118">
        <ele>344</ele>
        <time>2019-02-09T01:58:22+01:00</time>
      </trkpt>
    </trkseg>
  </trk>
</gpx>